Time;durP1;ratioP1;P1;durP2;ratioP2;P2;SDS_P1;SDS_P2;PMS_P1;PMS_P2;Temp;Humidity;BMP_temperature;BMP_pressure;BME280_temperature;BME280_humidity;BME280_pressure;Samples;Min_cycle;Max_cycle;Signal;HPM_P1;HPM_P2
2023/05/17 00:01:31;;;;;;;6.82;4.50;;;18.60;62.70;;;;;;6176260;22;20888;-55
2023/05/17 00:03:57;;;;;;;6.35;4.65;;;18.50;62.50;;;;;;6175840;22;20055;-56
2023/05/17 00:06:23;;;;;;;7.18;4.85;;;18.50;62.20;;;;;;6177663;22;20083;-53
2023/05/17 00:08:49;;;;;;;5.50;4.88;;;18.50;62.40;;;;;;6179658;22;20043;-51
2023/05/17 00:11:14;;;;;;;7.45;4.97;;;18.50;63.20;;;;;;6179567;22;20061;-53
2023/05/17 00:13:41;;;;;;;9.00;4.80;;;18.50;63.60;;;;;;6179726;22;20084;-54
2023/05/17 00:16:07;;;;;;;7.68;5.53;;;18.50;62.70;;;;;;6179529;22;20831;-53
2023/05/17 00:18:32;;;;;;;8.60;5.95;;;18.50;62.70;;;;;;6177939;22;20001;-53
2023/05/17 00:20:58;;;;;;;8.10;5.68;;;18.50;62.30;;;;;;6179841;22;20019;-51
2023/05/17 00:23:24;;;;;;;7.68;6.15;;;18.50;62.20;;;;;;6179590;22;20039;-54
2023/05/17 00:25:49;;;;;;;7.78;6.97;;;18.50;62.00;;;;;;6178538;22;20336;-52
2023/05/17 00:28:15;;;;;;;8.07;7.20;;;18.50;61.80;;;;;;6179609;22;20061;-53
2023/05/17 00:30:41;;;;;;;7.55;6.72;;;18.50;61.90;;;;;;6177220;22;20421;-51
2023/05/17 00:33:07;;;;;;;12.10;9.77;;;18.50;62.30;;;;;;6177896;22;20050;-52
2023/05/17 00:35:32;;;;;;;10.13;9.10;;;18.50;61.50;;;;;;6179190;23;20126;-53
2023/05/17 00:37:58;;;;;;;8.30;7.22;;;18.50;61.10;;;;;;6179720;22;20005;-54
2023/05/17 00:40:24;;;;;;;8.75;7.72;;;18.50;61.90;;;;;;6177662;22;20004;-51
2023/05/17 00:42:49;;;;;;;11.45;8.15;;;18.50;61.50;;;;;;6177258;22;20005;-54
2023/05/17 00:45:15;;;;;;;9.93;7.60;;;18.50;60.40;;;;;;6178999;22;20005;-52
2023/05/17 00:47:41;;;;;;;10.27;7.63;;;18.50;59.90;;;;;;6179158;22;20013;-52
2023/05/17 00:50:07;;;;;;;10.45;6.95;;;18.60;59.50;;;;;;6179170;22;20146;-51
2023/05/17 00:52:34;;;;;;;7.90;6.25;;;18.50;59.30;;;;;;6177129;22;20024;-51
2023/05/17 00:55:01;;;;;;;6.65;5.70;;;18.50;58.80;;;;;;6178729;22;20001;-52
2023/05/17 00:57:28;;;;;;;6.95;5.70;;;18.50;58.60;;;;;;6178699;22;20329;-54
2023/05/17 00:59:54;;;;;;;6.90;5.35;;;18.60;58.50;;;;;;6178216;22;20484;-53
2023/05/17 01:02:21;;;;;;;9.02;6.13;;;18.60;58.50;;;;;;6177440;22;20340;-55
2023/05/17 01:04:47;;;;;;;6.30;5.70;;;18.60;58.50;;;;;;6176289;23;20029;-52
2023/05/17 01:07:13;;;;;;;6.40;4.78;;;18.60;58.30;;;;;;6179027;22;20055;-54
2023/05/17 01:09:39;;;;;;;6.10;5.25;;;18.60;58.20;;;;;;6178216;23;20425;-55
2023/05/17 01:12:10;;;;;;;7.15;5.10;;;18.50;58.30;;;;;;6178120;23;20005;-56
2023/05/17 01:14:51;;;;;;;5.88;5.10;;;18.50;58.10;;;;;;6179551;22;20367;-52
2023/05/17 01:17:24;;;;;;;6.80;5.47;;;18.50;58.00;;;;;;6179450;22;19997;-52
2023/05/17 01:20:05;;;;;;;6.53;5.22;;;18.50;58.00;;;;;;6180291;22;20012;-56
2023/05/17 01:22:32;;;;;;;7.82;5.57;;;18.50;58.00;;;;;;6179005;22;20357;-50
2023/05/17 01:25:17;;;;;;;6.43;5.43;;;18.50;57.90;;;;;;6178999;22;20005;-53
2023/05/17 01:27:47;;;;;;;7.93;5.57;;;18.50;57.90;;;;;;6179888;22;20085;-55
2023/05/17 01:30:14;;;;;;;9.50;7.30;;;18.40;58.10;;;;;;6179837;22;20425;-54
2023/05/17 01:32:42;;;;;;;9.45;8.55;;;18.40;59.00;;;;;;6179680;22;20009;-52
2023/05/17 01:35:10;;;;;;;10.20;8.43;;;18.40;60.10;;;;;;6176906;22;20023;-56
2023/05/17 01:37:36;;;;;;;7.82;6.80;;;18.50;61.20;;;;;;6178123;23;20058;-57
2023/05/17 01:40:02;;;;;;;6.00;5.40;;;18.40;62.00;;;;;;6179812;22;20009;-53
2023/05/17 01:42:32;;;;;;;7.28;6.00;;;18.50;62.70;;;;;;6178211;22;19997;-55
2023/05/17 01:45:30;;;;;;;7.85;5.65;;;18.40;62.60;;;;;;6178182;22;20032;-53
2023/05/17 01:47:56;;;;;;;7.22;6.40;;;18.40;62.30;;;;;;6184772;22;20002;-51
2023/05/17 01:50:27;;;;;;;6.80;6.10;;;18.40;62.40;;;;;;6180060;22;20004;-52
2023/05/17 01:52:54;;;;;;;;;;;18.40;62.50;;;;;;6180076;22;20381;-52
2023/05/17 01:55:41;;;;;;;5.75;5.15;;;18.30;62.50;;;;;;6178856;22;20003;-52
2023/05/17 01:58:09;;;;;;;7.20;5.20;;;18.30;63.20;;;;;;6180471;22;20001;-52
2023/05/17 02:00:37;;;;;;;6.95;5.30;;;18.30;63.10;;;;;;6177399;23;20013;-52
2023/05/17 02:03:03;;;;;;;7.05;5.75;;;18.30;63.10;;;;;;6178145;22;20009;-52
2023/05/17 02:05:28;;;;;;;7.82;5.40;;;18.30;63.20;;;;;;6177051;22;20588;-55
2023/05/17 02:07:54;;;;;;;6.53;5.40;;;18.30;63.10;;;;;;6177051;22;20077;-55
2023/05/17 02:10:20;;;;;;;6.88;5.20;;;18.30;63.20;;;;;;6177475;22;20425;-53
2023/05/17 02:12:45;;;;;;;9.90;5.68;;;18.30;63.10;;;;;;6176930;22;20001;-52
2023/05/17 02:15:12;;;;;;;8.32;5.85;;;18.30;63.40;;;;;;6178233;22;20029;-52
2023/05/17 02:17:39;;;;;;;7.55;5.53;;;18.30;63.10;;;;;;6177654;22;20001;-53
2023/05/17 02:20:07;;;;;;;9.02;5.40;;;18.30;63.60;;;;;;6178092;23;20013;-52
2023/05/17 02:22:32;;;;;;;7.07;4.75;;;18.30;63.70;;;;;;6179312;22;20032;-53
2023/05/17 02:24:58;;;;;;;5.60;5.03;;;18.20;63.50;;;;;;6179642;22;20009;-51
2023/05/17 02:27:23;;;;;;;6.32;5.43;;;18.20;63.50;;;;;;6179676;22;20039;-52
2023/05/17 02:29:49;;;;;;;7.82;5.47;;;18.20;63.60;;;;;;6180365;22;20028;-51
2023/05/17 02:32:15;;;;;;;7.18;5.10;;;18.20;63.70;;;;;;6179965;22;20322;-55
2023/05/17 02:34:40;;;;;;;7.05;5.25;;;18.20;63.60;;;;;;6179378;22;20005;-54
2023/05/17 02:37:06;;;;;;;8.15;5.30;;;18.20;63.60;;;;;;6283216;22;20006;-52
2023/05/17 02:39:32;;;;;;;7.10;5.28;;;18.20;63.40;;;;;;6178607;22;20425;-56
2023/05/17 02:41:58;;;;;;;9.45;5.47;;;18.20;63.50;;;;;;6179574;23;20009;-51
2023/05/17 02:44:23;;;;;;;8.38;5.22;;;18.20;63.20;;;;;;6178657;22;20001;-49
2023/05/17 02:46:49;;;;;;;7.45;5.13;;;18.20;63.10;;;;;;6179609;22;20047;-53
2023/05/17 02:49:15;;;;;;;9.35;5.30;;;18.20;63.20;;;;;;6180131;22;20341;-49
2023/05/17 02:51:40;;;;;;;6.82;5.55;;;18.20;63.10;;;;;;6179883;22;20005;-51
2023/05/17 02:54:06;;;;;;;8.10;5.13;;;18.20;63.00;;;;;;6179555;22;20007;-53
2023/05/17 02:56:32;;;;;;;6.40;5.03;;;18.20;62.90;;;;;;6180148;22;20001;-55
2023/05/17 02:59:00;;;;;;;6.80;5.03;;;18.20;62.80;;;;;;6179755;23;20388;-52
2023/05/17 03:01:26;;;;;;;7.18;5.32;;;18.30;62.70;;;;;;6179120;22;20512;-51
2023/05/17 03:03:52;;;;;;;9.77;5.85;;;18.30;62.80;;;;;;6177301;23;20009;-54
2023/05/17 03:06:18;;;;;;;8.98;6.43;;;18.30;62.70;;;;;;6179390;22;20008;-51
2023/05/17 03:08:43;;;;;;;12.90;7.18;;;18.30;62.60;;;;;;6178119;22;20005;-54
2023/05/17 03:11:09;;;;;;;9.77;8.65;;;18.30;62.50;;;;;;6179568;22;20012;-51
2023/05/17 03:13:35;;;;;;;12.60;9.68;;;18.30;62.50;;;;;;6179360;22;20774;-54
2023/05/17 03:16:00;;;;;;;11.40;10.05;;;18.30;62.50;;;;;;6180228;22;20007;-53
2023/05/17 03:18:26;;;;;;;13.75;9.80;;;18.40;62.40;;;;;;6179272;22;20306;-52
2023/05/17 03:20:51;;;;;;;12.93;9.80;;;18.40;62.10;;;;;;6178977;22;20044;-52
2023/05/17 03:23:17;;;;;;;12.32;9.65;;;18.40;62.30;;;;;;6179820;22;20081;-52
2023/05/17 03:25:43;;;;;;;14.13;10.38;;;18.40;62.80;;;;;;6179257;22;20039;-53
2023/05/17 03:28:08;;;;;;;12.30;9.60;;;18.50;62.90;;;;;;6179680;22;20005;-50
2023/05/17 03:30:34;;;;;;;11.70;10.05;;;18.50;62.90;;;;;;6178722;22;20428;-52
2023/05/17 03:33:00;;;;;;;13.55;9.20;;;18.50;63.00;;;;;;6175218;22;20054;-53
2023/05/17 03:35:25;;;;;;;15.32;12.23;;;18.50;62.30;;;;;;6173904;22;20001;-53
2023/05/17 03:37:51;;;;;;;13.32;11.10;;;18.50;62.40;;;;;;6174879;22;20386;-51
2023/05/17 03:40:17;;;;;;;11.48;8.38;;;18.60;62.80;;;;;;6170073;22;20126;-53
2023/05/17 03:42:42;;;;;;;8.90;7.35;;;18.60;63.40;;;;;;6171165;23;20201;-50
2023/05/17 03:45:08;;;;;;;8.15;6.85;;;18.60;63.60;;;;;;6172735;22;20037;-54
2023/05/17 03:47:34;;;;;;;11.35;7.40;;;18.50;63.70;;;;;;6175821;22;20009;-54
2023/05/17 03:49:59;;;;;;;10.07;6.13;;;18.50;64.60;;;;;;6177786;22;20001;-52
2023/05/17 03:52:25;;;;;;;9.20;6.75;;;18.50;64.00;;;;;;6177468;22;20489;-55
2023/05/17 03:54:51;;;;;;;6.97;5.82;;;18.50;64.20;;;;;;6177058;22;20001;-51
2023/05/17 03:57:18;;;;;;;8.48;6.15;;;18.40;64.10;;;;;;6176881;22;20005;-52
2023/05/17 03:59:44;;;;;;;7.05;5.63;;;18.40;64.10;;;;;;6178740;22;20009;-51
2023/05/17 04:02:10;;;;;;;7.28;5.72;;;18.40;64.00;;;;;;6176335;22;20008;-55
2023/05/17 04:04:35;;;;;;;10.27;5.72;;;18.40;64.10;;;;;;6175111;22;20413;-55
2023/05/17 04:07:01;;;;;;;9.10;5.40;;;18.40;64.20;;;;;;6177208;22;20005;-51
2023/05/17 04:09:27;;;;;;;8.10;5.10;;;18.40;64.20;;;;;;6174258;22;20012;-53
2023/05/17 04:11:52;;;;;;;7.10;5.53;;;18.40;64.60;;;;;;6176132;22;20054;-50
2023/05/17 04:14:18;;;;;;;8.93;5.53;;;18.40;65.00;;;;;;6174490;22;19997;-55
2023/05/17 04:16:44;;;;;;;8.85;5.70;;;18.40;65.10;;;;;;6175982;23;20380;-52
2023/05/17 04:19:10;;;;;;;8.38;5.22;;;18.40;65.00;;;;;;6177201;22;20005;-50
2023/05/17 04:21:35;;;;;;;8.85;5.50;;;18.40;64.90;;;;;;6177348;22;20017;-54
2023/05/17 04:24:01;;;;;;;6.63;4.80;;;18.40;65.10;;;;;;6176005;22;20009;-54
2023/05/17 04:26:26;;;;;;;7.22;5.25;;;18.40;65.20;;;;;;6178196;22;20001;-53
2023/05/17 04:28:52;;;;;;;7.35;4.85;;;18.40;65.40;;;;;;6177090;22;20006;-52
2023/05/17 04:31:18;;;;;;;7.55;5.28;;;18.40;65.60;;;;;;6177796;22;20013;-55
2023/05/17 04:33:43;;;;;;;7.10;5.20;;;18.50;66.20;;;;;;6176021;22;20012;-54
2023/05/17 04:36:09;;;;;;;6.88;5.00;;;18.50;66.40;;;;;;6175813;22;20015;-51
2023/05/17 04:38:35;;;;;;;7.18;5.20;;;18.50;66.90;;;;;;6172795;22;20005;-52
2023/05/17 04:41:04;;;;;;;7.75;5.50;;;18.50;67.90;;;;;;6174480;22;20016;-54
2023/05/17 04:43:33;;;;;;;7.22;5.60;;;18.50;67.90;;;;;;6175754;22;20542;-51
2023/05/17 04:45:59;;;;;;;7.80;5.78;;;18.50;68.30;;;;;;6174380;22;20337;-55
2023/05/17 04:48:26;;;;;;;8.90;5.93;;;18.50;68.40;;;;;;6173875;22;20105;-56
2023/05/17 04:50:52;;;;;;;6.38;5.63;;;18.50;69.30;;;;;;6176601;22;20005;-52
2023/05/17 04:53:18;;;;;;;5.97;5.35;;;18.60;70.30;;;;;;6172207;22;20024;-53
2023/05/17 04:55:44;;;;;;;9.55;6.38;;;18.60;71.30;;;;;;6174065;22;20450;-56
2023/05/17 04:58:10;;;;;;;8.88;5.50;;;18.60;71.80;;;;;;6174725;22;20370;-53
2023/05/17 05:00:36;;;;;;;8.15;6.00;;;18.60;72.00;;;;;;6175596;22;20016;-57
2023/05/17 05:03:03;;;;;;;6.60;5.65;;;18.70;72.00;;;;;;6175416;22;20084;-54
2023/05/17 05:05:30;;;;;;;9.55;5.32;;;18.70;71.40;;;;;;6174143;22;20005;-54
2023/05/17 05:07:56;;;;;;;8.32;5.57;;;18.70;70.80;;;;;;6173887;22;20036;-55
2023/05/17 05:10:22;;;;;;;7.22;5.18;;;18.70;70.20;;;;;;6169884;22;20005;-57
2023/05/17 05:12:48;;;;;;;7.50;5.30;;;18.70;70.00;;;;;;6171009;22;20001;-56
2023/05/17 05:15:14;;;;;;;7.32;5.53;;;18.70;69.80;;;;;;6275889;22;20104;-55
2023/05/17 05:17:40;;;;;;;8.93;5.55;;;18.80;69.60;;;;;;6174432;22;20445;-55
2023/05/17 05:20:07;;;;;;;8.02;5.80;;;18.80;69.40;;;;;;6172224;22;19998;-53
2023/05/17 05:22:33;;;;;;;8.77;5.03;;;18.80;69.20;;;;;;6172997;22;20097;-55
2023/05/17 05:24:58;;;;;;;7.32;5.65;;;18.80;69.00;;;;;;6172519;22;20004;-53
2023/05/17 05:27:24;;;;;;;8.65;5.35;;;18.80;69.20;;;;;;6172113;22;19997;-55
2023/05/17 05:29:50;;;;;;;8.70;5.50;;;18.80;69.30;;;;;;6173936;22;20081;-53
2023/05/17 05:32:16;;;;;;;8.85;5.72;;;18.80;70.40;;;;;;6174302;22;20005;-55
2023/05/17 05:34:41;;;;;;;10.48;5.63;;;18.90;71.40;;;;;;6172181;22;20104;-53
2023/05/17 05:37:07;;;;;;;7.18;5.43;;;18.90;71.90;;;;;;6171404;22;20012;-56
2023/05/17 05:39:33;;;;;;;9.43;5.88;;;18.90;72.70;;;;;;6173447;22;20630;-54
2023/05/17 05:41:59;;;;;;;11.55;6.15;;;19.00;73.80;;;;;;6169978;22;20013;-52
2023/05/17 05:44:24;;;;;;;7.82;5.82;;;19.00;74.50;;;;;;6171907;22;20029;-55
2023/05/17 05:46:50;;;;;;;8.10;6.25;;;19.10;76.00;;;;;;6175028;22;20024;-56
2023/05/17 05:49:16;;;;;;;9.05;6.90;;;19.10;77.40;;;;;;6175746;22;20009;-56
2023/05/17 05:51:41;;;;;;;7.10;5.85;;;19.20;78.50;;;;;;6175869;22;20340;-54
2023/05/17 05:54:07;;;;;;;8.00;6.40;;;19.30;79.20;;;;;;6175668;22;20429;-53
2023/05/17 05:56:32;;;;;;;10.05;6.75;;;19.30;80.30;;;;;;6175840;22;20001;-54
2023/05/17 05:58:58;;;;;;;14.93;10.98;;;19.40;79.90;;;;;;6179672;22;20001;-55
2023/05/17 06:01:24;;;;;;;11.52;8.50;;;19.40;79.70;;;;;;6175842;22;20058;-55
2023/05/17 06:03:50;;;;;;;10.32;8.57;;;19.50;79.60;;;;;;6177260;22;20020;-54
2023/05/17 06:06:18;;;;;;;10.93;8.57;;;19.50;79.30;;;;;;6177427;22;20140;-54
2023/05/17 06:08:45;;;;;;;10.30;7.85;;;19.50;79.30;;;;;;6173535;22;20009;-56
2023/05/17 06:11:12;;;;;;;8.57;6.38;;;19.50;79.20;;;;;;6173365;22;20608;-57
2023/05/17 06:13:38;;;;;;;7.15;5.85;;;19.50;79.10;;;;;;6174237;22;20008;-56
2023/05/17 06:16:04;;;;;;;7.63;5.60;;;19.40;78.80;;;;;;6175006;22;20325;-56
2023/05/17 06:18:30;;;;;;;7.13;5.57;;;19.40;78.40;;;;;;6179794;22;20001;-56
2023/05/17 06:20:56;;;;;;;7.25;5.70;;;19.40;78.00;;;;;;6172639;23;20033;-52
2023/05/17 06:23:22;;;;;;;7.10;5.40;;;19.40;78.20;;;;;;6175952;22;20012;-54
2023/05/17 06:25:48;;;;;;;7.20;6.30;;;19.40;78.20;;;;;;6174267;23;20371;-55
2023/05/17 06:28:13;;;;;;;6.78;5.53;;;19.40;78.10;;;;;;6175260;23;20009;-54
2023/05/17 06:30:39;;;;;;;8.93;5.90;;;19.40;77.70;;;;;;6279175;22;20005;-55
2023/05/17 06:33:05;;;;;;;7.30;5.70;;;19.40;77.20;;;;;;6175309;22;20064;-54
2023/05/17 06:35:30;;;;;;;10.15;5.90;;;19.40;75.80;;;;;;6177916;22;20001;-54
2023/05/17 06:37:56;;;;;;;7.35;5.70;;;19.40;75.00;;;;;;6178879;22;20002;-52
2023/05/17 06:40:22;;;;;;;7.28;5.85;;;19.40;74.80;;;;;;6178197;22;20002;-54
2023/05/17 06:42:47;;;;;;;7.43;6.10;;;19.30;74.70;;;;;;6176955;22;20435;-54
2023/05/17 06:45:13;;;;;;;7.32;6.57;;;19.30;74.50;;;;;;6175150;22;20336;-56
2023/05/17 06:47:39;;;;;;;8.27;6.10;;;19.30;74.60;;;;;;6174792;22;20005;-57
2023/05/17 06:50:06;;;;;;;11.43;6.50;;;19.30;74.70;;;;;;6173922;22;20008;-53
2023/05/17 06:52:31;;;;;;;9.52;7.03;;;19.40;74.90;;;;;;6173253;22;20005;-54
2023/05/17 06:54:57;;;;;;;8.95;7.32;;;19.40;74.70;;;;;;6170562;22;20001;-51
2023/05/17 06:57:23;;;;;;;8.75;7.85;;;19.40;74.70;;;;;;6170849;22;20071;-54
2023/05/17 06:59:49;;;;;;;10.18;7.35;;;19.40;74.50;;;;;;6171458;22;19997;-54
2023/05/17 07:02:15;;;;;;;10.75;7.90;;;19.40;74.40;;;;;;6170804;23;20016;-56
2023/05/17 07:04:40;;;;;;;9.75;8.25;;;19.50;74.50;;;;;;6170609;22;20717;-53
2023/05/17 07:07:06;;;;;;;11.93;8.23;;;19.50;74.50;;;;;;6168915;22;20009;-54
2023/05/17 07:09:31;;;;;;;10.02;7.57;;;19.60;75.00;;;;;;6168650;22;20641;-56
2023/05/17 07:11:57;;;;;;;7.80;6.72;;;19.70;75.00;;;;;;6167931;22;20040;-56
2023/05/17 07:14:23;;;;;;;8.63;6.55;;;19.70;74.60;;;;;;6171050;22;20166;-58
2023/05/17 07:16:48;;;;;;;7.20;6.43;;;19.70;74.20;;;;;;6170911;22;20429;-53
2023/05/17 07:19:14;;;;;;;8.75;6.65;;;19.80;74.10;;;;;;6171577;22;20081;-58
2023/05/17 07:21:40;;;;;;;7.57;6.55;;;19.70;74.00;;;;;;6172125;22;20351;-57
2023/05/17 07:24:06;;;;;;;10.93;7.35;;;19.80;73.90;;;;;;6271200;22;20009;-56
2023/05/17 07:26:32;;;;;;;9.65;7.18;;;19.80;74.00;;;;;;6167552;22;20027;-58
2023/05/17 07:28:57;;;;;;;9.00;7.32;;;19.80;73.70;;;;;;6165875;22;20009;-58
2023/05/17 07:31:23;;;;;;;10.68;7.20;;;19.90;73.40;;;;;;6167744;22;20001;-58
2023/05/17 07:33:49;;;;;;;9.90;7.40;;;19.80;73.20;;;;;;6163380;22;20766;-57
2023/05/17 07:36:14;;;;;;;7.85;6.90;;;19.80;73.50;;;;;;6157508;22;20302;-59
2023/05/17 07:38:40;;;;;;;10.82;7.72;;;19.90;73.40;;;;;;6164450;22;20058;-60
2023/05/17 07:41:09;;;;;;;8.27;7.15;;;19.80;73.40;;;;;;6168090;22;20328;-55
2023/05/17 07:43:38;;;;;;;12.10;7.57;;;19.90;73.50;;;;;;6170595;22;20009;-55
2023/05/17 07:46:04;;;;;;;9.18;7.10;;;19.80;73.30;;;;;;6161565;22;20066;-52
2023/05/17 07:48:30;;;;;;;8.30;6.93;;;19.90;73.70;;;;;;6159860;22;20075;-58
2023/05/17 07:50:56;;;;;;;24.60;9.27;;;19.90;73.50;;;;;;6160854;23;20009;-56
2023/05/17 07:53:22;;;;;;;10.70;8.70;;;19.90;73.90;;;;;;6267157;22;20012;-57
2023/05/17 07:55:48;;;;;;;13.68;8.38;;;19.90;74.20;;;;;;6266570;22;20005;-53
2023/05/17 07:58:13;;;;;;;10.13;8.23;;;19.90;74.20;;;;;;6167476;22;20074;-54
2023/05/17 08:00:41;;;;;;;11.82;8.50;;;19.90;74.50;;;;;;6163156;22;20078;-57
2023/05/17 08:03:07;;;;;;;8.35;7.32;;;19.80;74.80;;;;;;6166254;22;20376;-57
2023/05/17 08:05:33;;;;;;;9.82;7.45;;;19.80;74.80;;;;;;6164886;22;20112;-56
2023/05/17 08:07:59;;;;;;;10.73;8.15;;;19.80;74.80;;;;;;6167189;22;20013;-57
2023/05/17 08:10:25;;;;;;;10.32;8.30;;;19.90;75.00;;;;;;6168022;22;20013;-57
2023/05/17 08:12:52;;;;;;;8.45;7.32;;;19.90;75.00;;;;;;6167705;22;20009;-55
2023/05/17 08:15:18;;;;;;;12.35;8.40;;;19.90;74.90;;;;;;6162639;22;20001;-57
2023/05/17 08:17:43;;;;;;;9.82;8.25;;;19.90;75.00;;;;;;6267412;22;20765;-56
2023/05/17 08:20:09;;;;;;;13.02;8.30;;;19.90;75.10;;;;;;6171672;22;20001;-55
2023/05/17 08:22:35;;;;;;;8.15;7.35;;;19.90;75.20;;;;;;6164240;22;20021;-57
2023/05/17 08:25:01;;;;;;;12.02;8.00;;;19.90;75.20;;;;;;6166505;22;20001;-56
2023/05/17 08:27:29;;;;;;;11.02;8.63;;;19.90;75.40;;;;;;6162845;22;20105;-57
2023/05/17 08:29:56;;;;;;;10.50;8.18;;;19.90;75.50;;;;;;6168422;22;20005;-56
2023/05/17 08:32:22;;;;;;;12.35;7.85;;;19.90;75.20;;;;;;6157728;22;20009;-53
2023/05/17 08:34:48;;;;;;;12.20;8.52;;;19.90;75.30;;;;;;6162093;22;20005;-58
2023/05/17 08:37:14;;;;;;;11.15;8.82;;;19.90;75.20;;;;;;6167913;22;20001;-56
2023/05/17 08:39:40;;;;;;;10.82;8.70;;;19.80;75.10;;;;;;6166955;22;20001;-56
2023/05/17 08:42:09;;;;;;;12.73;9.25;;;19.80;75.30;;;;;;6168189;23;20701;-57
2023/05/17 08:44:36;;;;;;;11.50;8.65;;;19.80;75.40;;;;;;6163058;22;20005;-59
2023/05/17 08:47:02;;;;;;;12.10;9.32;;;19.80;75.50;;;;;;6268545;22;20362;-59
2023/05/17 08:49:32;;;;;;;11.07;9.30;;;19.80;75.60;;;;;;6169016;22;20005;-56
2023/05/17 08:51:59;;;;;;;11.00;8.93;;;19.80;75.60;;;;;;6164941;22;20013;-55
2023/05/17 08:54:25;;;;;;;11.52;9.02;;;19.80;75.50;;;;;;6165608;22;20484;-56
2023/05/17 08:56:57;;;;;;;11.25;8.63;;;19.80;74.70;;;;;;6269976;22;20054;-58
2023/05/17 08:59:25;;;;;;;11.90;9.02;;;19.80;74.70;;;;;;6163851;22;20001;-53
2023/05/17 09:01:53;;;;;;;10.57;8.07;;;19.90;74.70;;;;;;6163305;22;20012;-55
2023/05/17 09:04:20;;;;;;;12.80;7.70;;;19.90;74.60;;;;;;6161377;22;20005;-57
2023/05/17 09:06:45;;;;;;;9.45;7.45;;;19.80;73.90;;;;;;6164622;22;20015;-50
2023/05/17 09:09:12;;;;;;;11.30;7.30;;;19.80;73.60;;;;;;6164902;22;20005;-54
2023/05/17 09:11:38;;;;;;;11.95;8.18;;;19.90;73.50;;;;;;6161444;22;20009;-53
2023/05/17 09:14:05;;;;;;;8.55;7.10;;;19.90;73.00;;;;;;6159636;22;20005;-57
2023/05/17 09:16:33;;;;;;;8.82;6.70;;;19.90;73.00;;;;;;6162079;23;20781;-57
2023/05/17 09:19:00;;;;;;;9.77;6.75;;;20.00;72.70;;;;;;6160646;22;20001;-53
2023/05/17 09:21:27;;;;;;;9.52;7.28;;;20.00;72.70;;;;;;6156040;22;20027;-56
2023/05/17 09:23:53;;;;;;;7.78;6.82;;;20.00;72.70;;;;;;6161497;22;20009;-57
2023/05/17 09:26:20;;;;;;;10.57;6.82;;;20.00;72.30;;;;;;6162988;22;20009;-56
2023/05/17 09:28:47;;;;;;;8.43;6.90;;;20.10;72.10;;;;;;6162710;22;20015;-56
2023/05/17 09:31:15;;;;;;;9.15;6.45;;;20.10;72.00;;;;;;6159369;22;20013;-55
2023/05/17 09:33:49;;;;;;;10.15;7.50;;;20.10;71.70;;;;;;6167058;22;20012;-57
2023/05/17 09:36:20;;;;;;;8.85;6.88;;;20.10;72.00;;;;;;6161745;23;20509;-55
2023/05/17 09:38:55;;;;;;;9.80;7.25;;;20.10;71.90;;;;;;6159673;22;20627;-55
2023/05/17 09:41:25;;;;;;;8.02;6.65;;;20.10;71.90;;;;;;6159020;22;20015;-56
2023/05/17 09:43:51;;;;;;;9.65;6.45;;;20.10;71.60;;;;;;6153771;22;20070;-55
2023/05/17 09:46:19;;;;;;;10.07;6.88;;;20.10;71.40;;;;;;6156510;22;20013;-55
2023/05/17 09:48:45;;;;;;;8.40;5.75;;;20.10;71.30;;;;;;6157483;22;20062;-53
2023/05/17 09:51:11;;;;;;;7.13;5.95;;;20.20;71.00;;;;;;6156253;23;20009;-52
2023/05/17 09:53:41;;;;;;;9.10;5.85;;;20.20;70.50;;;;;;6153144;22;20005;-53
2023/05/17 09:56:08;;;;;;;7.82;5.65;;;20.20;70.00;;;;;;6150214;22;20028;-55
2023/05/17 09:58:36;;;;;;;7.85;5.50;;;20.20;70.40;;;;;;6162178;22;20009;-52
2023/05/17 10:01:04;;;;;;;7.72;5.35;;;20.20;69.60;;;;;;6161896;22;20853;-55
2023/05/17 10:03:32;;;;;;;8.88;6.03;;;20.20;69.40;;;;;;6165596;22;20437;-51
2023/05/17 10:06:07;;;;;;;14.82;6.20;;;20.30;69.70;;;;;;6161517;22;20020;-55
2023/05/17 10:08:33;;;;;;;8.98;6.30;;;20.20;69.90;;;;;;6159409;22;20005;-53
2023/05/17 10:11:09;;;;;;;9.75;6.40;;;20.20;70.10;;;;;;6163563;22;20088;-54
2023/05/17 10:14:05;;;;;;;6.13;5.53;;;20.30;70.30;;;;;;6165289;22;20758;-54
2023/05/17 10:16:33;;;;;;;8.85;6.07;;;20.30;70.10;;;;;;6160977;22;20001;-54
2023/05/17 10:19:00;;;;;;;10.00;6.00;;;20.30;70.30;;;;;;6165318;22;20001;-54
2023/05/17 10:21:27;;;;;;;7.10;5.65;;;20.40;70.40;;;;;;6159776;22;20864;-55
2023/05/17 10:23:54;;;;;;;8.38;6.57;;;20.40;70.80;;;;;;6162499;22;20059;-56
2023/05/17 10:26:21;;;;;;;7.75;5.88;;;20.30;71.50;;;;;;6161968;22;20009;-55
2023/05/17 10:28:50;;;;;;;6.32;5.53;;;20.40;72.10;;;;;;6152133;22;20009;-54
2023/05/17 10:31:16;;;;;;;6.72;6.05;;;20.40;72.60;;;;;;6157135;22;20009;-56
2023/05/17 10:33:45;;;;;;;7.97;6.00;;;20.30;72.90;;;;;;6160442;22;20015;-57
2023/05/17 10:36:16;;;;;;;10.40;6.10;;;20.30;72.70;;;;;;6156404;22;20011;-55
2023/05/17 10:38:41;;;;;;;6.72;5.72;;;20.20;72.50;;;;;;6156788;22;20612;-56
2023/05/17 10:41:10;;;;;;;6.20;4.93;;;20.20;72.50;;;;;;6160839;22;20009;-54
2023/05/17 10:43:37;;;;;;;6.13;5.05;;;20.10;72.20;;;;;;6162538;22;20009;-52
2023/05/17 10:46:10;;;;;;;7.72;5.38;;;20.10;71.90;;;;;;6155995;22;20029;-53
2023/05/17 10:48:36;;;;;;;7.82;5.45;;;20.00;71.70;;;;;;6158379;22;20612;-55
2023/05/17 10:51:06;;;;;;;6.15;4.97;;;20.00;71.70;;;;;;6160062;22;20059;-53
2023/05/17 10:53:32;;;;;;;6.43;4.43;;;20.00;71.80;;;;;;6154602;23;20882;-52
2023/05/17 10:55:58;;;;;;;6.30;5.10;;;20.00;71.80;;;;;;6159414;23;20472;-53
2023/05/17 10:58:28;;;;;;;6.03;4.35;;;19.90;71.70;;;;;;6158266;22;20008;-54
2023/05/17 11:00:55;;;;;;;5.43;4.05;;;19.90;71.40;;;;;;6157039;22;20012;-56
2023/05/17 11:03:28;;;;;;;6.78;4.00;;;19.90;70.70;;;;;;6265817;22;20013;-53
2023/05/17 11:06:13;;;;;;;5.68;4.03;;;19.90;70.60;;;;;;6159829;22;20012;-54
2023/05/17 11:08:47;;;;;;;5.15;3.92;;;20.00;70.50;;;;;;6165374;22;20507;-52
2023/05/17 11:11:19;;;;;;;7.68;4.65;;;20.00;70.20;;;;;;6162902;22;20036;-52
2023/05/17 11:13:55;;;;;;;5.85;4.25;;;20.00;69.60;;;;;;6163069;22;20005;-55
2023/05/17 11:16:22;;;;;;;6.40;4.13;;;20.10;69.40;;;;;;6158775;22;20433;-55
2023/05/17 11:18:53;;;;;;;6.78;3.90;;;20.10;69.20;;;;;;6163706;22;20009;-56
2023/05/17 11:21:20;;;;;;;;;;;20.20;68.60;;;;;;6156396;22;20112;-53
2023/05/17 11:23:47;;;;;;;7.75;4.10;;;20.20;68.00;;;;;;6158110;22;19939;-56
2023/05/17 11:26:46;;;;;;;5.88;4.57;;;20.20;68.40;;;;;;6165197;22;20009;-55
2023/05/17 11:29:11;;;;;;;7.15;3.80;;;20.30;67.70;;;;;;6240652;22;20080;-54
2023/05/17 11:31:44;;;;;;;7.25;4.25;;;20.30;67.10;;;;;;6168040;22;20147;-56
2023/05/17 11:34:10;;;;;;;5.60;4.10;;;20.40;66.20;;;;;;6245438;22;20005;-55
2023/05/17 11:36:51;;;;;;;5.70;4.10;;;20.40;66.20;;;;;;6166933;23;20055;-52
2023/05/17 11:39:22;;;;;;;6.82;5.45;;;20.50;66.40;;;;;;6169159;22;20005;-56
2023/05/17 11:41:49;;;;;;;;;;;20.50;66.90;;;;;;6167664;22;20092;-53
2023/05/17 11:44:28;;;;;;;6.85;5.50;;;20.50;67.00;;;;;;6160718;22;19985;-53
2023/05/17 11:47:07;;;;;;;8.52;4.50;;;20.50;67.20;;;;;;6161544;22;20114;-52
2023/05/17 11:49:37;;;;;;;7.32;4.72;;;20.50;67.10;;;;;;6166774;22;20009;-54
2023/05/17 11:52:06;;;;;;;8.13;4.15;;;20.50;67.20;;;;;;6160302;22;20120;-57
2023/05/17 11:54:32;;;;;;;5.93;4.28;;;20.50;66.80;;;;;;6164609;22;20431;-55
2023/05/17 11:56:59;;;;;;;6.38;4.45;;;20.50;66.90;;;;;;6157080;22;20005;-56
2023/05/17 11:59:25;;;;;;;5.55;4.40;;;20.50;66.90;;;;;;6152981;22;20012;-56
2023/05/17 12:01:51;;;;;;;7.65;4.47;;;20.50;67.10;;;;;;6156471;22;20005;-55
2023/05/17 12:04:36;;;;;;;9.32;5.82;;;20.50;67.10;;;;;;6164334;22;20076;-57
2023/05/17 12:07:02;;;;;;;6.60;4.80;;;20.60;67.00;;;;;;6162560;22;20005;-57
2023/05/17 12:09:28;;;;;;;8.13;4.70;;;20.60;66.30;;;;;;6161958;22;20009;-56
2023/05/17 12:11:55;;;;;;;5.72;4.30;;;20.60;65.80;;;;;;6161990;22;20105;-56
2023/05/17 12:14:21;;;;;;;6.72;4.38;;;20.60;65.80;;;;;;6161751;22;20687;-54
2023/05/17 12:16:52;;;;;;;9.57;4.38;;;20.70;65.70;;;;;;6163605;22;20001;-53
2023/05/17 12:19:23;;;;;;;7.75;4.53;;;20.70;65.20;;;;;;6164111;22;19994;-57
2023/05/17 12:21:50;;;;;;;5.13;3.97;;;20.70;65.30;;;;;;6156610;23;20021;-56
2023/05/17 12:24:16;;;;;;;9.60;4.28;;;20.70;65.30;;;;;;6161123;22;20009;-54
2023/05/17 12:26:45;;;;;;;6.93;3.92;;;20.70;65.30;;;;;;6160342;22;20009;-55
2023/05/17 12:29:16;;;;;;;7.30;4.03;;;20.80;65.00;;;;;;6164166;22;20015;-52
2023/05/17 12:31:49;;;;;;;4.72;4.05;;;20.80;64.30;;;;;;6161147;22;20030;-56
2023/05/17 12:34:16;;;;;;;6.43;3.92;;;20.80;63.70;;;;;;6166987;22;20077;-53
2023/05/17 12:36:43;;;;;;;6.10;4.10;;;20.90;63.30;;;;;;6164792;22;20337;-56
2023/05/17 12:39:12;;;;;;;4.95;3.88;;;20.90;62.90;;;;;;6165841;22;20001;-54
2023/05/17 12:41:38;;;;;;;8.82;3.92;;;21.00;62.60;;;;;;6167680;22;20016;-54
2023/05/17 12:44:07;;;;;;;8.55;3.45;;;21.00;62.60;;;;;;6169171;23;20006;-56
2023/05/17 12:46:33;;;;;;;7.80;4.22;;;21.10;62.10;;;;;;6158453;22;20005;-58